sensor_id;sensor_type;location;lat;lon;timestamp;P1;P2;P0
27143;PMS1003;14672;50.250;8.312;2024-02-26T00:02:19;7.00;7.00;1.00
27143;PMS1003;14672;50.250;8.312;2024-02-26T00:04:45;8.00;8.00;3.00
27143;PMS1003;14672;50.250;8.312;2024-02-26T00:07:10;7.00;7.00;1.00
27143;PMS1003;14672;50.250;8.312;2024-02-26T00:09:36;8.33;7.00;1.00
27143;PMS1003;14672;50.250;8.312;2024-02-26T00:12:02;8.00;7.00;1.00
27143;PMS1003;14672;50.250;8.312;2024-02-26T00:14:30;10.25;9.50;1.00
27143;PMS1003;14672;50.250;8.312;2024-02-26T00:16:56;6.50;6.50;1.00
27143;PMS1003;14672;50.250;8.312;2024-02-26T00:19:22;8.75;8.75;2.50
27143;PMS1003;14672;50.250;8.312;2024-02-26T00:21:48;9.00;7.33;1.67
27143;PMS1003;14672;50.250;8.312;2024-02-26T00:24:13;7.00;7.00;1.00
27143;PMS1003;14672;50.250;8.312;2024-02-26T00:26:39;8.00;7.00;3.00
27143;PMS1003;14672;50.250;8.312;2024-02-26T00:29:05;7.00;7.00;1.67
27143;PMS1003;14672;50.250;8.312;2024-02-26T00:31:30;7.67;7.00;1.00
27143;PMS1003;14672;50.250;8.312;2024-02-26T00:33:56;8.67;8.67;1.00
27143;PMS1003;14672;50.250;8.312;2024-02-26T00:36:22;6.33;6.33;1.00
27143;PMS1003;14672;50.250;8.312;2024-02-26T00:38:48;9.00;9.00;1.00
27143;PMS1003;14672;50.250;8.312;2024-02-26T00:41:18;8.25;7.25;1.00
27143;PMS1003;14672;50.250;8.312;2024-02-26T00:43:45;7.00;7.00;1.50
27143;PMS1003;14672;50.250;8.312;2024-02-26T00:46:12;6.50;6.50;1.00
27143;PMS1003;14672;50.250;8.312;2024-02-26T00:48:38;6.33;6.33;1.00
27143;PMS1003;14672;50.250;8.312;2024-02-26T00:51:04;9.00;8.67;1.00
27143;PMS1003;14672;50.250;8.312;2024-02-26T00:53:30;8.00;8.00;1.50
27143;PMS1003;14672;50.250;8.312;2024-02-26T00:55:57;6.50;6.50;1.00
27143;PMS1003;14672;50.250;8.312;2024-02-26T00:58:26;9.00;9.00;3.00
27143;PMS1003;14672;50.250;8.312;2024-02-26T01:00:52;8.75;8.75;1.50
27143;PMS1003;14672;50.250;8.312;2024-02-26T01:03:18;5.67;5.67;1.00
27143;PMS1003;14672;50.250;8.312;2024-02-26T01:05:44;7.00;7.00;2.50
27143;PMS1003;14672;50.250;8.312;2024-02-26T01:08:11;7.00;7.00;2.00
27143;PMS1003;14672;50.250;8.312;2024-02-26T01:10:36;7.00;7.00;1.00
27143;PMS1003;14672;50.250;8.312;2024-02-26T01:13:02;7.33;7.33;1.00
27143;PMS1003;14672;50.250;8.312;2024-02-26T01:15:28;8.67;7.00;1.00
27143;PMS1003;14672;50.250;8.312;2024-02-26T01:17:54;8.00;7.00;1.00
27143;PMS1003;14672;50.250;8.312;2024-02-26T01:20:20;6.33;6.33;1.00
27143;PMS1003;14672;50.250;8.312;2024-02-26T01:22:46;5.00;5.00;1.00
27143;PMS1003;14672;50.250;8.312;2024-02-26T01:25:12;6.33;6.33;1.00
27143;PMS1003;14672;50.250;8.312;2024-02-26T01:27:38;6.00;6.00;1.00
27143;PMS1003;14672;50.250;8.312;2024-02-26T01:30:06;5.50;5.50;1.00
27143;PMS1003;14672;50.250;8.312;2024-02-26T01:32:32;6.00;6.00;1.00
27143;PMS1003;14672;50.250;8.312;2024-02-26T01:34:58;7.00;7.00;1.00
27143;PMS1003;14672;50.250;8.312;2024-02-26T01:37:24;6.33;6.33;1.00
27143;PMS1003;14672;50.250;8.312;2024-02-26T01:39:50;9.33;8.67;3.00
27143;PMS1003;14672;50.250;8.312;2024-02-26T01:42:15;9.00;9.00;3.00
27143;PMS1003;14672;50.250;8.312;2024-02-26T01:44:41;7.00;7.00;1.00
27143;PMS1003;14672;50.250;8.312;2024-02-26T01:47:07;8.00;8.00;1.00
27143;PMS1003;14672;50.250;8.312;2024-02-26T01:49:36;6.50;6.50;1.50
27143;PMS1003;14672;50.250;8.312;2024-02-26T01:52:04;7.25;7.25;1.00
27143;PMS1003;14672;50.250;8.312;2024-02-26T01:54:32;8.50;6.50;1.00
27143;PMS1003;14672;50.250;8.312;2024-02-26T01:57:01;8.75;7.00;1.00
27143;PMS1003;14672;50.250;8.312;2024-02-26T01:59:28;8.75;7.00;1.00
27143;PMS1003;14672;50.250;8.312;2024-02-26T02:01:55;7.00;7.00;1.00
27143;PMS1003;14672;50.250;8.312;2024-02-26T02:04:24;5.00;5.00;1.00
27143;PMS1003;14672;50.250;8.312;2024-02-26T02:06:50;7.25;6.50;1.00
27143;PMS1003;14672;50.250;8.312;2024-02-26T02:09:17;8.00;8.00;1.00
27143;PMS1003;14672;50.250;8.312;2024-02-26T02:11:44;5.00;5.00;1.00
27143;PMS1003;14672;50.250;8.312;2024-02-26T02:14:10;7.33;7.33;1.00
27143;PMS1003;14672;50.250;8.312;2024-02-26T02:16:35;9.00;7.00;1.00
27143;PMS1003;14672;50.250;8.312;2024-02-26T02:19:01;8.33;7.00;2.33
27143;PMS1003;14672;50.250;8.312;2024-02-26T02:21:27;9.00;9.00;1.00
27143;PMS1003;14672;50.250;8.312;2024-02-26T02:23:52;8.00;8.00;1.00
27143;PMS1003;14672;50.250;8.312;2024-02-26T02:26:18;7.00;7.00;1.00
27143;PMS1003;14672;50.250;8.312;2024-02-26T02:28:44;8.25;8.25;1.00
27143;PMS1003;14672;50.250;8.312;2024-02-26T02:31:12;10.00;10.00;3.00
27143;PMS1003;14672;50.250;8.312;2024-02-26T02:33:39;7.25;7.25;1.00
27143;PMS1003;14672;50.250;8.312;2024-02-26T02:36:05;7.00;7.00;1.67
27143;PMS1003;14672;50.250;8.312;2024-02-26T02:38:34;8.75;8.75;2.00
27143;PMS1003;14672;50.250;8.312;2024-02-26T02:41:14;10.50;7.00;2.50
27143;PMS1003;14672;50.250;8.312;2024-02-26T02:43:39;9.00;7.00;1.00
27143;PMS1003;14672;50.250;8.312;2024-02-26T02:46:05;9.33;9.00;1.00
27143;PMS1003;14672;50.250;8.312;2024-02-26T02:48:31;9.00;9.00;3.00
27143;PMS1003;14672;50.250;8.312;2024-02-26T02:50:56;7.67;7.67;2.33
27143;PMS1003;14672;50.250;8.312;2024-02-26T02:53:22;8.00;8.00;2.33
27143;PMS1003;14672;50.250;8.312;2024-02-26T02:55:48;7.00;7.00;3.00
27143;PMS1003;14672;50.250;8.312;2024-02-26T02:58:13;9.00;9.00;3.00
27143;PMS1003;14672;50.250;8.312;2024-02-26T03:00:39;7.00;7.00;1.00
27143;PMS1003;14672;50.250;8.312;2024-02-26T03:03:05;9.33;9.00;1.67
27143;PMS1003;14672;50.250;8.312;2024-02-26T03:05:31;8.75;8.75;2.00
27143;PMS1003;14672;50.250;8.312;2024-02-26T03:07:57;7.00;7.00;3.00
27143;PMS1003;14672;50.250;8.312;2024-02-26T03:10:23;11.75;9.75;3.50
27143;PMS1003;14672;50.250;8.312;2024-02-26T03:12:49;9.00;9.00;3.00
27143;PMS1003;14672;50.250;8.312;2024-02-26T03:15:15;8.50;8.50;3.00
27143;PMS1003;14672;50.250;8.312;2024-02-26T03:17:41;10.00;10.00;5.00
27143;PMS1003;14672;50.250;8.312;2024-02-26T03:20:07;8.67;8.67;3.00
27143;PMS1003;14672;50.250;8.312;2024-02-26T03:22:38;12.00;11.00;3.00
27143;PMS1003;14672;50.250;8.312;2024-02-26T03:25:05;10.25;9.25;3.00
27143;PMS1003;14672;50.250;8.312;2024-02-26T03:27:32;10.00;10.00;5.00
27143;PMS1003;14672;50.250;8.312;2024-02-26T03:29:58;14.00;10.00;1.67
27143;PMS1003;14672;50.250;8.312;2024-02-26T03:32:26;7.00;7.00;1.00
27143;PMS1003;14672;50.250;8.312;2024-02-26T03:34:52;10.00;10.00;3.00
27143;PMS1003;14672;50.250;8.312;2024-02-26T03:37:21;9.00;9.00;1.00
27143;PMS1003;14672;50.250;8.312;2024-02-26T03:39:46;11.00;9.67;3.67
27143;PMS1003;14672;50.250;8.312;2024-02-26T03:42:12;10.33;10.33;3.00
27143;PMS1003;14672;50.250;8.312;2024-02-26T03:44:38;9.00;9.00;3.00
27143;PMS1003;14672;50.250;8.312;2024-02-26T03:47:03;12.00;12.00;3.00
27143;PMS1003;14672;50.250;8.312;2024-02-26T03:49:29;10.00;10.00;5.00
27143;PMS1003;14672;50.250;8.312;2024-02-26T03:51:55;10.00;9.33;3.00
27143;PMS1003;14672;50.250;8.312;2024-02-26T03:54:21;10.25;10.25;3.00
27143;PMS1003;14672;50.250;8.312;2024-02-26T03:56:47;10.00;10.00;3.00
27143;PMS1003;14672;50.250;8.312;2024-02-26T03:59:12;10.00;10.00;5.00
27143;PMS1003;14672;50.250;8.312;2024-02-26T04:01:38;10.00;10.00;5.00
27143;PMS1003;14672;50.250;8.312;2024-02-26T04:04:04;10.00;9.67;4.33
27143;PMS1003;14672;50.250;8.312;2024-02-26T04:06:29;12.00;10.00;3.00
27143;PMS1003;14672;50.250;8.312;2024-02-26T04:08:55;10.67;10.00;3.00
27143;PMS1003;14672;50.250;8.312;2024-02-26T04:11:21;12.00;11.67;5.00
27143;PMS1003;14672;50.250;8.312;2024-02-26T04:13:47;12.00;12.00;4.33
27143;PMS1003;14672;50.250;8.312;2024-02-26T04:16:14;9.25;9.25;3.00
27143;PMS1003;14672;50.250;8.312;2024-02-26T04:18:41;11.00;10.25;3.50
27143;PMS1003;14672;50.250;8.312;2024-02-26T04:21:07;11.50;11.50;4.00
27143;PMS1003;14672;50.250;8.312;2024-02-26T04:23:33;9.00;9.00;3.00
27143;PMS1003;14672;50.250;8.312;2024-02-26T04:25:59;11.33;11.33;3.00
27143;PMS1003;14672;50.250;8.312;2024-02-26T04:28:24;10.33;10.00;3.67
27143;PMS1003;14672;50.250;8.312;2024-02-26T04:30:51;8.75;8.75;3.00
27143;PMS1003;14672;50.250;8.312;2024-02-26T04:33:17;12.75;11.25;3.00
27143;PMS1003;14672;50.250;8.312;2024-02-26T04:35:43;11.00;11.00;4.33
27143;PMS1003;14672;50.250;8.312;2024-02-26T04:38:09;9.33;9.33;3.00
27143;PMS1003;14672;50.250;8.312;2024-02-26T04:40:34;12.33;11.67;5.00
27143;PMS1003;14672;50.250;8.312;2024-02-26T04:43:00;11.67;9.67;3.00
27143;PMS1003;14672;50.250;8.312;2024-02-26T04:45:26;8.67;8.67;3.00
27143;PMS1003;14672;50.250;8.312;2024-02-26T04:47:51;9.00;9.00;3.00
27143;PMS1003;14672;50.250;8.312;2024-02-26T04:50:17;10.33;10.00;3.00
27143;PMS1003;14672;50.250;8.312;2024-02-26T04:52:43;11.33;10.00;2.33
27143;PMS1003;14672;50.250;8.312;2024-02-26T04:55:08;11.33;10.67;3.00
27143;PMS1003;14672;50.250;8.312;2024-02-26T04:57:34;9.67;9.67;4.33
27143;PMS1003;14672;50.250;8.312;2024-02-26T05:00:00;10.67;10.33;3.00
27143;PMS1003;14672;50.250;8.312;2024-02-26T05:02:25;10.00;9.67;3.00
27143;PMS1003;14672;50.250;8.312;2024-02-26T05:04:52;10.50;9.00;1.00
27143;PMS1003;14672;50.250;8.312;2024-02-26T05:07:18;11.00;11.00;3.00
27143;PMS1003;14672;50.250;8.312;2024-02-26T05:09:44;13.33;13.00;4.33
27143;PMS1003;14672;50.250;8.312;2024-02-26T05:12:11;7.50;7.50;2.00
27143;PMS1003;14672;50.250;8.312;2024-02-26T05:14:37;13.33;10.67;3.00
27143;PMS1003;14672;50.250;8.312;2024-02-26T05:17:03;13.00;13.00;3.00
27143;PMS1003;14672;50.250;8.312;2024-02-26T05:19:28;13.00;11.00;3.00
27143;PMS1003;14672;50.250;8.312;2024-02-26T05:21:54;9.00;9.00;3.00
27143;PMS1003;14672;50.250;8.312;2024-02-26T05:24:20;13.00;9.00;3.00
27143;PMS1003;14672;50.250;8.312;2024-02-26T05:26:47;11.25;11.25;3.00
27143;PMS1003;14672;50.250;8.312;2024-02-26T05:29:13;12.67;12.00;5.00
27143;PMS1003;14672;50.250;8.312;2024-02-26T05:31:39;11.00;9.67;3.00
27143;PMS1003;14672;50.250;8.312;2024-02-26T05:34:10;9.50;9.25;3.00
27143;PMS1003;14672;50.250;8.312;2024-02-26T05:36:36;9.33;9.00;1.67
27143;PMS1003;14672;50.250;8.312;2024-02-26T05:39:02;11.00;11.00;3.00
27143;PMS1003;14672;50.250;8.312;2024-02-26T05:41:28;13.00;10.75;4.50
27143;PMS1003;14672;50.250;8.312;2024-02-26T05:43:54;11.00;11.00;4.33
27143;PMS1003;14672;50.250;8.312;2024-02-26T05:46:21;8.50;8.00;3.00
27143;PMS1003;14672;50.250;8.312;2024-02-26T05:48:48;9.25;9.25;3.50
27143;PMS1003;14672;50.250;8.312;2024-02-26T05:51:17;10.50;9.25;3.00
27143;PMS1003;14672;50.250;8.312;2024-02-26T05:53:43;11.00;9.25;3.00
27143;PMS1003;14672;50.250;8.312;2024-02-26T05:56:09;10.75;10.75;3.00
27143;PMS1003;14672;50.250;8.312;2024-02-26T05:58:34;10.33;10.33;3.00
27143;PMS1003;14672;50.250;8.312;2024-02-26T06:01:00;11.00;9.00;3.00
27143;PMS1003;14672;50.250;8.312;2024-02-26T06:03:26;13.00;11.00;5.00
27143;PMS1003;14672;50.250;8.312;2024-02-26T06:05:52;13.25;12.25;5.00
27143;PMS1003;14672;50.250;8.312;2024-02-26T06:08:18;12.67;9.00;3.00
27143;PMS1003;14672;50.250;8.312;2024-02-26T06:10:44;7.00;7.00;1.00
27143;PMS1003;14672;50.250;8.312;2024-02-26T06:13:09;9.00;9.00;1.00
27143;PMS1003;14672;50.250;8.312;2024-02-26T06:15:35;11.00;11.00;3.00
27143;PMS1003;14672;50.250;8.312;2024-02-26T06:18:01;10.00;10.00;5.00
27143;PMS1003;14672;50.250;8.312;2024-02-26T06:20:26;20.00;16.00;7.00
27143;PMS1003;14672;50.250;8.312;2024-02-26T06:22:52;28.67;27.00;12.00
27143;PMS1003;14672;50.250;8.312;2024-02-26T06:25:18;28.00;26.67;15.00
27143;PMS1003;14672;50.250;8.312;2024-02-26T06:27:43;15.67;13.00;5.00
27143;PMS1003;14672;50.250;8.312;2024-02-26T06:30:09;13.00;13.00;4.33
27143;PMS1003;14672;50.250;8.312;2024-02-26T06:32:36;11.50;11.00;3.00
27143;PMS1003;14672;50.250;8.312;2024-02-26T06:35:03;15.75;12.75;5.00
27143;PMS1003;14672;50.250;8.312;2024-02-26T06:37:32;15.25;14.25;3.50
27143;PMS1003;14672;50.250;8.312;2024-02-26T06:39:58;13.00;12.50;5.00
27143;PMS1003;14672;50.250;8.312;2024-02-26T06:42:25;11.75;11.75;3.50
27143;PMS1003;14672;50.250;8.312;2024-02-26T06:44:51;16.33;15.00;7.00
27143;PMS1003;14672;50.250;8.312;2024-02-26T06:47:16;15.67;14.67;5.67
27143;PMS1003;14672;50.250;8.312;2024-02-26T06:49:42;16.00;16.00;7.00
27143;PMS1003;14672;50.250;8.312;2024-02-26T06:52:09;19.00;19.00;10.50
27143;PMS1003;14672;50.250;8.312;2024-02-26T06:54:34;28.00;26.00;13.00
27143;PMS1003;14672;50.250;8.312;2024-02-26T06:57:00;20.33;19.00;9.00
27143;PMS1003;14672;50.250;8.312;2024-02-26T06:59:26;21.75;21.00;9.00
27143;PMS1003;14672;50.250;8.312;2024-02-26T07:01:53;22.00;18.00;7.00
27143;PMS1003;14672;50.250;8.312;2024-02-26T07:04:19;19.25;16.00;7.00
27143;PMS1003;14672;50.250;8.312;2024-02-26T07:06:45;18.25;17.75;6.50
27143;PMS1003;14672;50.250;8.312;2024-02-26T07:09:12;13.50;13.25;5.00
27143;PMS1003;14672;50.250;8.312;2024-02-26T07:11:38;14.00;12.75;5.00
27143;PMS1003;14672;50.250;8.312;2024-02-26T07:14:08;12.75;12.75;5.00
27143;PMS1003;14672;50.250;8.312;2024-02-26T07:16:35;12.00;12.00;3.00
27143;PMS1003;14672;50.250;8.312;2024-02-26T07:19:02;10.00;9.00;2.50
27143;PMS1003;14672;50.250;8.312;2024-02-26T07:21:29;10.25;10.25;3.00
27143;PMS1003;14672;50.250;8.312;2024-02-26T07:23:54;17.00;11.00;3.00
27143;PMS1003;14672;50.250;8.312;2024-02-26T07:26:20;10.33;10.33;2.33
27143;PMS1003;14672;50.250;8.312;2024-02-26T07:28:46;11.00;11.00;4.33
27143;PMS1003;14672;50.250;8.312;2024-02-26T07:31:12;13.00;13.00;3.67
27143;PMS1003;14672;50.250;8.312;2024-02-26T07:33:38;15.50;15.50;5.00
27143;PMS1003;14672;50.250;8.312;2024-02-26T07:36:03;15.33;13.33;5.00
27143;PMS1003;14672;50.250;8.312;2024-02-26T07:38:29;12.00;12.00;3.00
27143;PMS1003;14672;50.250;8.312;2024-02-26T07:40:55;15.67;14.00;4.33
27143;PMS1003;14672;50.250;8.312;2024-02-26T07:43:22;12.50;12.50;4.00
27143;PMS1003;14672;50.250;8.312;2024-02-26T07:45:50;17.00;15.50;6.50
27143;PMS1003;14672;50.250;8.312;2024-02-26T07:48:15;15.67;15.67;5.00
27143;PMS1003;14672;50.250;8.312;2024-02-26T07:50:41;16.00;15.33;8.33
27143;PMS1003;14672;50.250;8.312;2024-02-26T07:53:07;15.67;15.67;7.00
27143;PMS1003;14672;50.250;8.312;2024-02-26T07:55:33;21.67;19.00;7.67
27143;PMS1003;14672;50.250;8.312;2024-02-26T07:57:58;16.00;15.00;7.00
27143;PMS1003;14672;50.250;8.312;2024-02-26T08:00:24;14.00;13.00;5.00
27143;PMS1003;14672;50.250;8.312;2024-02-26T08:02:50;13.00;13.00;5.00
27143;PMS1003;14672;50.250;8.312;2024-02-26T08:05:15;15.00;14.00;7.00
27143;PMS1003;14672;50.250;8.312;2024-02-26T08:07:41;15.33;15.33;7.00
27143;PMS1003;14672;50.250;8.312;2024-02-26T08:10:07;16.00;16.00;5.67
27143;PMS1003;14672;50.250;8.312;2024-02-26T08:12:33;13.25;12.75;5.00
27143;PMS1003;14672;50.250;8.312;2024-02-26T08:15:00;12.75;12.50;5.00
27143;PMS1003;14672;50.250;8.312;2024-02-26T08:17:26;13.25;11.25;5.00
27143;PMS1003;14672;50.250;8.312;2024-02-26T08:19:52;14.00;14.00;7.00
27143;PMS1003;14672;50.250;8.312;2024-02-26T08:22:18;16.33;15.00;7.00
27143;PMS1003;14672;50.250;8.312;2024-02-26T08:24:44;11.00;10.33;3.00
27143;PMS1003;14672;50.250;8.312;2024-02-26T08:27:10;14.67;14.00;5.00
27143;PMS1003;14672;50.250;8.312;2024-02-26T08:29:36;12.00;11.33;3.00
27143;PMS1003;14672;50.250;8.312;2024-02-26T08:32:01;16.67;15.33;7.00
27143;PMS1003;14672;50.250;8.312;2024-02-26T08:34:27;17.00;13.00;4.00
27143;PMS1003;14672;50.250;8.312;2024-02-26T08:36:53;13.33;12.33;3.00
27143;PMS1003;14672;50.250;8.312;2024-02-26T08:39:19;14.00;13.33;5.00
27143;PMS1003;14672;50.250;8.312;2024-02-26T08:41:45;12.50;11.50;5.00
27143;PMS1003;14672;50.250;8.312;2024-02-26T08:44:11;13.25;12.75;6.00
27143;PMS1003;14672;50.250;8.312;2024-02-26T08:46:37;11.00;11.00;3.67
27143;PMS1003;14672;50.250;8.312;2024-02-26T08:49:03;14.00;12.50;5.00
27143;PMS1003;14672;50.250;8.312;2024-02-26T08:51:29;13.00;13.00;5.00
27143;PMS1003;14672;50.250;8.312;2024-02-26T08:53:55;13.33;13.33;5.00
27143;PMS1003;14672;50.250;8.312;2024-02-26T08:56:21;14.50;13.75;5.00
27143;PMS1003;14672;50.250;8.312;2024-02-26T08:58:47;10.67;10.67;5.00
27143;PMS1003;14672;50.250;8.312;2024-02-26T09:01:18;13.00;13.00;3.00
27143;PMS1003;14672;50.250;8.312;2024-02-26T09:03:44;10.25;9.75;3.50
27143;PMS1003;14672;50.250;8.312;2024-02-26T09:06:10;11.75;11.00;5.00
27143;PMS1003;14672;50.250;8.312;2024-02-26T09:08:43;14.00;13.00;5.00
27143;PMS1003;14672;50.250;8.312;2024-02-26T09:11:09;15.67;13.33;5.00
27143;PMS1003;14672;50.250;8.312;2024-02-26T09:13:35;12.00;11.75;5.00
27143;PMS1003;14672;50.250;8.312;2024-02-26T09:16:01;12.67;11.00;3.00
27143;PMS1003;14672;50.250;8.312;2024-02-26T09:18:27;13.00;11.75;5.00
27143;PMS1003;14672;50.250;8.312;2024-02-26T09:20:54;16.25;13.25;5.00
27143;PMS1003;14672;50.250;8.312;2024-02-26T09:23:19;11.00;11.00;3.00
27143;PMS1003;14672;50.250;8.312;2024-02-26T09:25:45;10.67;10.67;3.67
27143;PMS1003;14672;50.250;8.312;2024-02-26T09:28:11;14.67;14.33;5.67
27143;PMS1003;14672;50.250;8.312;2024-02-26T09:30:36;12.33;12.33;5.00
27143;PMS1003;14672;50.250;8.312;2024-02-26T09:33:03;13.50;13.50;5.00
27143;PMS1003;14672;50.250;8.312;2024-02-26T09:35:29;12.00;10.75;3.50
27143;PMS1003;14672;50.250;8.312;2024-02-26T09:37:55;16.00;12.00;5.00
27143;PMS1003;14672;50.250;8.312;2024-02-26T09:40:21;14.00;14.00;5.00
27143;PMS1003;14672;50.250;8.312;2024-02-26T09:42:47;14.00;14.00;5.00
27143;PMS1003;14672;50.250;8.312;2024-02-26T09:45:19;20.00;20.00;7.00
27143;PMS1003;14672;50.250;8.312;2024-02-26T09:47:48;21.00;19.75;10.00
27143;PMS1003;14672;50.250;8.312;2024-02-26T09:50:17;13.25;12.00;6.00
27143;PMS1003;14672;50.250;8.312;2024-02-26T09:52:47;14.00;14.00;7.00
27143;PMS1003;14672;50.250;8.312;2024-02-26T09:55:14;10.00;10.00;3.50
27143;PMS1003;14672;50.250;8.312;2024-02-26T09:57:42;12.67;12.67;5.67
27143;PMS1003;14672;50.250;8.312;2024-02-26T10:00:20;10.75;10.00;3.00
27143;PMS1003;14672;50.250;8.312;2024-02-26T10:02:47;12.50;12.50;5.00
27143;PMS1003;14672;50.250;8.312;2024-02-26T10:05:14;14.00;12.00;4.50
27143;PMS1003;14672;50.250;8.312;2024-02-26T10:07:46;9.50;8.50;3.00
27143;PMS1003;14672;50.250;8.312;2024-02-26T10:10:13;11.50;10.75;5.00
27143;PMS1003;14672;50.250;8.312;2024-02-26T10:12:40;15.00;10.00;2.00
27143;PMS1003;14672;50.250;8.312;2024-02-26T10:15:06;11.67;10.00;1.00
27143;PMS1003;14672;50.250;8.312;2024-02-26T10:17:32;7.75;7.75;3.00
27143;PMS1003;14672;50.250;8.312;2024-02-26T10:20:12;8.50;8.50;3.00
27143;PMS1003;14672;50.250;8.312;2024-02-26T10:22:40;11.50;11.25;3.00
27143;PMS1003;14672;50.250;8.312;2024-02-26T10:25:07;8.75;8.75;3.00
27143;PMS1003;14672;50.250;8.312;2024-02-26T10:27:33;11.50;10.00;5.00
27143;PMS1003;14672;50.250;8.312;2024-02-26T10:30:19;13.00;10.00;5.00
27143;PMS1003;14672;50.250;8.312;2024-02-26T10:32:47;12.50;12.00;3.00
27143;PMS1003;14672;50.250;8.312;2024-02-26T10:35:14;12.00;10.00;3.00
27143;PMS1003;14672;50.250;8.312;2024-02-26T10:37:42;9.75;9.75;5.00
27143;PMS1003;14672;50.250;8.312;2024-02-26T10:40:12;13.50;12.50;4.50
27143;PMS1003;14672;50.250;8.312;2024-02-26T10:42:39;13.50;13.50;5.50
27143;PMS1003;14672;50.250;8.312;2024-02-26T10:45:06;10.00;10.00;2.50
27143;PMS1003;14672;50.250;8.312;2024-02-26T10:47:34;10.75;10.75;3.00
27143;PMS1003;14672;50.250;8.312;2024-02-26T10:50:02;13.00;13.00;4.00
27143;PMS1003;14672;50.250;8.312;2024-02-26T10:52:33;13.00;10.50;3.00
27143;PMS1003;14672;50.250;8.312;2024-02-26T10:55:00;12.00;12.00;3.00
27143;PMS1003;14672;50.250;8.312;2024-02-26T10:57:33;13.50;12.00;4.00
27143;PMS1003;14672;50.250;8.312;2024-02-26T11:00:06;12.00;11.00;5.00
27143;PMS1003;14672;50.250;8.312;2024-02-26T11:02:35;11.00;10.00;3.00
27143;PMS1003;14672;50.250;8.312;2024-02-26T11:05:04;9.00;9.00;3.00
27143;PMS1003;14672;50.250;8.312;2024-02-26T11:07:32;10.00;10.00;3.00
27143;PMS1003;14672;50.250;8.312;2024-02-26T11:10:02;9.00;9.00;3.50
27143;PMS1003;14672;50.250;8.312;2024-02-26T11:12:30;12.00;10.00;3.00
27143;PMS1003;14672;50.250;8.312;2024-02-26T11:15:00;11.50;10.00;3.00
27143;PMS1003;14672;50.250;8.312;2024-02-26T11:17:28;7.25;7.25;3.00
27143;PMS1003;14672;50.250;8.312;2024-02-26T11:19:56;7.25;7.25;1.00
27143;PMS1003;14672;50.250;8.312;2024-02-26T11:22:27;8.00;8.00;3.00
27143;PMS1003;14672;50.250;8.312;2024-02-26T11:24:54;7.50;7.50;1.00
27143;PMS1003;14672;50.250;8.312;2024-02-26T11:27:30;7.50;7.50;1.00
27143;PMS1003;14672;50.250;8.312;2024-02-26T11:30:00;8.00;8.00;3.00
27143;PMS1003;14672;50.250;8.312;2024-02-26T11:32:30;8.75;8.75;1.50
27143;PMS1003;14672;50.250;8.312;2024-02-26T11:34:56;8.00;8.00;3.00
27143;PMS1003;14672;50.250;8.312;2024-02-26T11:37:23;8.00;8.00;3.00
27143;PMS1003;14672;50.250;8.312;2024-02-26T11:39:51;10.00;10.00;3.00
27143;PMS1003;14672;50.250;8.312;2024-02-26T11:42:18;12.25;10.00;3.00
27143;PMS1003;14672;50.250;8.312;2024-02-26T11:44:53;14.75;14.25;6.25
27143;PMS1003;14672;50.250;8.312;2024-02-26T11:47:21;11.00;11.00;5.00
27143;PMS1003;14672;50.250;8.312;2024-02-26T11:49:48;11.75;10.00;3.00
27143;PMS1003;14672;50.250;8.312;2024-02-26T11:52:15;9.50;9.50;3.00
27143;PMS1003;14672;50.250;8.312;2024-02-26T11:54:51;12.50;12.00;3.50
27143;PMS1003;14672;50.250;8.312;2024-02-26T11:57:25;13.50;12.25;5.00
27143;PMS1003;14672;50.250;8.312;2024-02-26T12:02:51;11.25;11.00;4.50
27143;PMS1003;14672;50.250;8.312;2024-02-26T12:05:23;14.75;12.75;5.00
27143;PMS1003;14672;50.250;8.312;2024-02-26T12:07:54;11.00;10.00;4.50
27143;PMS1003;14672;50.250;8.312;2024-02-26T12:10:35;11.50;10.00;3.00
27143;PMS1003;14672;50.250;8.312;2024-02-26T12:15:44;10.00;8.00;3.00
27143;PMS1003;14672;50.250;8.312;2024-02-26T12:18:23;8.50;8.00;3.00
27143;PMS1003;14672;50.250;8.312;2024-02-26T12:21:02;10.25;10.00;5.00
27143;PMS1003;14672;50.250;8.312;2024-02-26T12:23:29;13.50;11.00;5.00
27143;PMS1003;14672;50.250;8.312;2024-02-26T12:25:58;11.00;11.00;5.25
27143;PMS1003;14672;50.250;8.312;2024-02-26T12:28:29;15.00;13.00;5.75
27143;PMS1003;14672;50.250;8.312;2024-02-26T12:30:55;14.00;11.25;5.00
27143;PMS1003;14672;50.250;8.312;2024-02-26T12:33:24;11.00;11.00;5.00
27143;PMS1003;14672;50.250;8.312;2024-02-26T12:35:51;9.75;9.75;3.50
27143;PMS1003;14672;50.250;8.312;2024-02-26T12:38:18;9.50;9.50;4.75
27143;PMS1003;14672;50.250;8.312;2024-02-26T12:40:44;9.75;9.75;3.00
27143;PMS1003;14672;50.250;8.312;2024-02-26T12:43:10;10.75;10.75;3.50
27143;PMS1003;14672;50.250;8.312;2024-02-26T12:45:42;11.25;11.25;3.25
27143;PMS1003;14672;50.250;8.312;2024-02-26T12:48:12;10.75;10.25;4.00
27143;PMS1003;14672;50.250;8.312;2024-02-26T12:50:39;12.00;12.00;4.75
27143;PMS1003;14672;50.250;8.312;2024-02-26T12:53:04;12.33;12.00;4.67
27143;PMS1003;14672;50.250;8.312;2024-02-26T12:55:31;29.00;23.25;10.50
27143;PMS1003;14672;50.250;8.312;2024-02-26T12:57:59;13.75;12.75;6.00
27143;PMS1003;14672;50.250;8.312;2024-02-26T13:00:26;22.00;19.00;7.00
27143;PMS1003;14672;50.250;8.312;2024-02-26T13:02:56;11.50;11.50;3.00
27143;PMS1003;14672;50.250;8.312;2024-02-26T13:05:24;13.50;13.50;6.00
27143;PMS1003;14672;50.250;8.312;2024-02-26T13:07:50;19.25;19.25;8.00
27143;PMS1003;14672;50.250;8.312;2024-02-26T13:10:18;16.50;16.00;7.00
27143;PMS1003;14672;50.250;8.312;2024-02-26T13:12:45;18.25;16.25;6.50
27143;PMS1003;14672;50.250;8.312;2024-02-26T13:15:16;20.75;19.75;8.00
27143;PMS1003;14672;50.250;8.312;2024-02-26T13:17:44;19.25;18.00;8.00
27143;PMS1003;14672;50.250;8.312;2024-02-26T13:20:11;14.75;14.75;6.00
27143;PMS1003;14672;50.250;8.312;2024-02-26T13:22:38;18.50;18.50;6.00
27143;PMS1003;14672;50.250;8.312;2024-02-26T13:25:04;18.67;15.00;6.00
27143;PMS1003;14672;50.250;8.312;2024-02-26T13:27:33;15.25;13.50;5.50
27143;PMS1003;14672;50.250;8.312;2024-02-26T13:32:36;26.25;25.00;11.75
27143;PMS1003;14672;50.250;8.312;2024-02-26T13:35:07;31.75;29.00;11.50
27143;PMS1003;14672;50.250;8.312;2024-02-26T13:37:35;28.25;25.50;13.50
27143;PMS1003;14672;50.250;8.312;2024-02-26T13:40:08;33.00;23.75;11.25
27143;PMS1003;14672;50.250;8.312;2024-02-26T13:42:39;19.25;17.00;8.25
27143;PMS1003;14672;50.250;8.312;2024-02-26T13:45:05;22.00;20.75;10.75
27143;PMS1003;14672;50.250;8.312;2024-02-26T13:47:32;23.50;21.75;11.25
27143;PMS1003;14672;50.250;8.312;2024-02-26T13:50:01;15.00;14.00;6.00
27143;PMS1003;14672;50.250;8.312;2024-02-26T13:52:27;15.00;14.75;6.00
27143;PMS1003;14672;50.250;8.312;2024-02-26T13:54:53;17.67;17.67;8.00
27143;PMS1003;14672;50.250;8.312;2024-02-26T13:57:19;16.00;15.00;6.00
27143;PMS1003;14672;50.250;8.312;2024-02-26T13:59:45;18.00;18.00;6.00
27143;PMS1003;14672;50.250;8.312;2024-02-26T14:02:11;17.50;15.00;5.75
27143;PMS1003;14672;50.250;8.312;2024-02-26T14:04:37;11.00;10.00;4.75
27143;PMS1003;14672;50.250;8.312;2024-02-26T14:07:03;11.33;11.33;5.00
27143;PMS1003;14672;50.250;8.312;2024-02-26T14:09:30;13.00;13.00;6.00
27143;PMS1003;14672;50.250;8.312;2024-02-26T14:11:57;10.75;10.25;3.50
27143;PMS1003;14672;50.250;8.312;2024-02-26T14:14:25;14.75;13.00;6.00